Nantucket Memorial Airport Nantucket US
ICAO: KACK
IATA: ACK
Category: Medium
Scheduled Services: Yes

Elevation: 47 ft
TransAlt. 18000 ft.

Airport Communications:
CAPE APP/DEP:126.1
ATIS:127.5
CLNC DEL:119.375
CTAF:118.3
GND:121.7
BRIDGEPORT RDO:116.2
TWR:118.3
UNICOM:122.95

KACK Zoom In..

Runways:

(A) RW 06 length 6303 ft width 150 ft
ILS 109.10 / hdg 61

(B) RW 12 length 2696 ft width 50 ft
---- / hdg 123

(C) RW 15 length 4500 ft width 100 ft
---- / hdg 151

(D) RW 24 length 6303 ft width 150 ft
ILS 109.10 / hdg 241

(E) RW 30 length 2696 ft width 50 ft
---- / hdg 303

(F) RW 33 length 4500 ft width 100 ft
---- / hdg 331

Location; KACK
Day. 23 / Time. 07.53 Zulu
* Altimeter: 30.19
* Temperature: 19° c. 66.2°f.
* Wind from: 130° Speed 11 kn.
Dewpoint: 19° c.
Visibility: 5 Statute Miles.
Clouds: Few 300 ft.
Clouds: Overcast 1500 ft.
Conditions: Mist.

KACK 230753Z AUTO 13011KT 5SM BR FEW003 OVC015 19/19 A3019 RMK AO2 SLP223 T01890189 $


Wind From 130°
Speed 11 kn.

 
 
jpsmedia.com for Web Design worldairports.se 2018   terms of use